createdAt,value
2023-01-31T00:00:08.734Z,89.23
2023-01-31T00:02:10.219Z,89.43
2023-01-31T00:04:12.636Z,89.96
2023-01-31T00:06:21.228Z,89.84
2023-01-31T00:08:22.673Z,90.80
2023-01-31T00:10:24.122Z,90.60
2023-01-31T00:12:25.590Z,90.69
2023-01-31T00:14:27.041Z,91.12
2023-01-31T00:16:28.614Z,91.63
2023-01-31T00:18:30.844Z,91.59
2023-01-31T00:20:32.320Z,91.59
2023-01-31T00:22:33.848Z,92.30
2023-01-31T00:24:35.306Z,92.37
2023-01-31T00:26:37.560Z,92.87
2023-01-31T00:28:40.342Z,93.16
2023-01-31T00:30:41.769Z,92.83
2023-01-31T00:32:43.261Z,93.69
2023-01-31T00:34:44.865Z,93.92
2023-01-31T00:36:46.355Z,93.71
2023-01-31T00:38:56.597Z,94.08
2023-01-31T00:40:58.110Z,94.44
2023-01-31T00:42:59.609Z,94.83
2023-01-31T00:45:01.079Z,95.05
2023-01-31T00:47:02.745Z,95.01
2023-01-31T00:49:04.620Z,95.25
2023-01-31T00:51:06.478Z,95.19
2023-01-31T00:53:08.000Z,95.37
2023-01-31T00:55:09.610Z,95.02
2023-01-31T00:57:11.105Z,95.42
2023-01-31T00:59:12.706Z,95.67
2023-01-31T01:01:23.501Z,95.34
2023-01-31T01:03:25.017Z,95.33
2023-01-31T01:05:26.463Z,95.36
2023-01-31T01:07:27.913Z,95.50
2023-01-31T01:09:29.535Z,94.98
2023-01-31T01:11:32.641Z,95.07
2023-01-31T01:13:34.829Z,95.04
2023-01-31T01:15:39.692Z,95.78
2023-01-31T01:17:41.312Z,94.79
2023-01-31T01:19:42.809Z,95.10
2023-01-31T01:21:44.659Z,94.37
2023-01-31T01:23:49.830Z,94.63
2023-01-31T01:25:51.285Z,94.34
2023-01-31T01:27:52.714Z,93.98
2023-01-31T01:29:54.188Z,93.39
2023-01-31T01:31:55.727Z,93.04
2023-01-31T01:34:02.897Z,92.72
2023-01-31T01:36:06.659Z,92.36
2023-01-31T01:38:08.134Z,92.43
2023-01-31T01:40:10.158Z,93.11
2023-01-31T01:42:18.279Z,92.88
2023-01-31T01:44:41.586Z,92.19
2023-01-31T01:46:45.956Z,92.66
2023-01-31T01:48:51.290Z,92.81
2023-01-31T01:50:53.327Z,93.22
2023-01-31T01:53:08.398Z,93.92
2023-01-31T01:55:16.658Z,94.00
2023-01-31T01:57:23.088Z,94.41
2023-01-31T01:59:47.695Z,94.89
2023-01-31T02:01:50.631Z,95.01
2023-01-31T02:03:53.132Z,95.74
2023-01-31T02:05:58.693Z,95.80
2023-01-31T02:08:02.125Z,96.29
2023-01-31T02:10:19.567Z,96.87
2023-01-31T02:12:21.531Z,97.11
2023-01-31T02:14:23.239Z,97.21
2023-01-31T02:16:24.762Z,97.54
2023-01-31T02:18:27.934Z,97.27
2023-01-31T02:20:38.548Z,98.04
2023-01-31T02:22:54.169Z,98.14
2023-01-31T02:25:32.548Z,98.24
2023-01-31T02:27:58.601Z,98.97
2023-01-31T02:30:05.808Z,98.46
2023-01-31T02:32:13.347Z,99.28
2023-01-31T02:34:44.681Z,98.86
2023-01-31T02:37:01.899Z,99.49
2023-01-31T02:39:15.581Z,99.76
2023-01-31T02:41:38.774Z,100.00
2023-01-31T02:44:16.073Z,99.71
2023-01-31T02:46:18.687Z,99.87
2023-01-31T02:48:57.915Z,100.00
2023-01-31T02:51:15.390Z,99.96
2023-01-31T02:54:12.127Z,100.00
2023-01-31T02:56:28.893Z,100.00
2023-01-31T02:58:34.489Z,100.00
2023-01-31T03:00:38.662Z,100.00
2023-01-31T03:02:40.294Z,100.00
2023-01-31T03:04:43.051Z,100.00
2023-01-31T03:06:59.682Z,100.00
2023-01-31T03:09:25.727Z,99.66
2023-01-31T03:11:53.354Z,99.49
2023-01-31T03:14:12.535Z,99.54
2023-01-31T03:16:35.417Z,98.93
2023-01-31T03:18:52.283Z,98.98
2023-01-31T03:21:03.808Z,98.76
2023-01-31T03:23:10.959Z,98.10
2023-01-31T03:25:15.118Z,97.47
2023-01-31T03:27:17.681Z,97.75
2023-01-31T03:29:20.033Z,96.97
2023-01-31T03:31:32.833Z,96.77
2023-01-31T03:33:42.257Z,96.42
2023-01-31T03:35:51.679Z,96.17
2023-01-31T03:38:06.064Z,96.35
2023-01-31T03:40:23.633Z,96.02
2023-01-31T03:42:40.061Z,95.38
2023-01-31T03:44:41.459Z,95.27
2023-01-31T03:46:59.448Z,95.36
2023-01-31T03:49:04.193Z,95.18
2023-01-31T03:51:09.624Z,95.49
2023-01-31T03:53:16.021Z,95.14
2023-01-31T03:55:24.495Z,95.63
2023-01-31T03:57:34.427Z,95.35
2023-01-31T03:59:40.071Z,95.80
2023-01-31T04:01:50.624Z,95.79
2023-01-31T04:03:56.445Z,95.90
2023-01-31T04:05:58.007Z,95.92
2023-01-31T04:08:00.283Z,96.07
2023-01-31T04:10:02.546Z,95.90
2023-01-31T04:12:04.271Z,95.74
2023-01-31T04:14:06.096Z,96.02
2023-01-31T04:16:08.225Z,96.03
2023-01-31T04:18:09.723Z,95.98
2023-01-31T04:20:13.090Z,96.01
2023-01-31T04:22:14.605Z,95.64
2023-01-31T04:24:16.092Z,95.83
2023-01-31T04:26:17.685Z,96.14
2023-01-31T04:28:19.187Z,96.08
2023-01-31T04:30:20.661Z,95.87
2023-01-31T04:32:22.119Z,95.76
2023-01-31T04:34:23.630Z,95.71
2023-01-31T04:36:25.745Z,95.69
2023-01-31T04:38:27.298Z,96.22
2023-01-31T04:40:28.764Z,96.12
2023-01-31T04:42:30.249Z,96.22
2023-01-31T04:44:31.935Z,96.51
2023-01-31T04:46:33.521Z,96.39
2023-01-31T04:48:35.331Z,96.28
2023-01-31T04:50:36.820Z,96.35
2023-01-31T04:52:38.503Z,96.39
2023-01-31T04:54:40.061Z,96.07
2023-01-31T04:56:41.530Z,95.71
2023-01-31T04:58:43.517Z,95.87
2023-01-31T05:00:45.139Z,95.62
2023-01-31T05:02:46.812Z,95.93
2023-01-31T05:04:48.393Z,95.46
2023-01-31T05:06:50.025Z,95.68
2023-01-31T05:08:54.366Z,95.88
2023-01-31T05:11:02.308Z,95.42
2023-01-31T05:13:05.007Z,95.08
2023-01-31T05:15:11.609Z,95.57
2023-01-31T05:17:13.212Z,95.62
2023-01-31T05:19:16.161Z,95.43
2023-01-31T05:21:17.782Z,95.35
2023-01-31T05:23:19.787Z,95.51
2023-01-31T05:25:21.589Z,95.72
2023-01-31T05:27:23.359Z,95.27
2023-01-31T05:29:29.505Z,95.38
2023-01-31T05:31:31.548Z,95.36
2023-01-31T05:33:33.522Z,94.99
2023-01-31T05:35:35.963Z,95.38
2023-01-31T05:37:37.510Z,95.06
2023-01-31T05:39:39.159Z,94.86
2023-01-31T05:41:40.621Z,94.06
2023-01-31T05:43:42.098Z,94.85
2023-01-31T05:45:43.603Z,94.11
2023-01-31T05:47:47.198Z,94.14
2023-01-31T05:49:48.678Z,94.24
2023-01-31T05:51:50.191Z,93.97
2023-01-31T05:53:52.002Z,94.43
2023-01-31T05:55:54.196Z,94.08
2023-01-31T05:57:56.357Z,93.57
2023-01-31T05:59:57.812Z,94.31
2023-01-31T06:01:59.804Z,93.39
2023-01-31T06:04:01.960Z,94.21
2023-01-31T06:06:05.168Z,93.63
2023-01-31T06:08:07.123Z,94.02
2023-01-31T06:10:10.983Z,93.47
2023-01-31T06:12:16.814Z,93.08
2023-01-31T06:14:18.310Z,93.67
2023-01-31T06:16:19.904Z,93.71
2023-01-31T06:18:21.409Z,93.28
2023-01-31T06:20:22.940Z,93.45
2023-01-31T06:22:24.527Z,93.77
2023-01-31T06:24:25.972Z,93.99
2023-01-31T06:26:27.697Z,93.84
2023-01-31T06:28:29.261Z,93.49
2023-01-31T06:30:30.926Z,94.00
2023-01-31T06:32:32.937Z,93.68
2023-01-31T06:34:34.489Z,94.19
2023-01-31T06:36:35.960Z,94.00
2023-01-31T06:38:37.439Z,93.77
2023-01-31T06:40:38.932Z,94.15
2023-01-31T06:42:40.393Z,94.42
2023-01-31T06:44:41.870Z,93.68
2023-01-31T06:46:43.352Z,94.60
2023-01-31T06:48:44.829Z,94.37
2023-01-31T06:50:46.745Z,93.91
2023-01-31T06:52:48.238Z,94.69
2023-01-31T06:54:49.863Z,94.30
2023-01-31T06:56:51.450Z,94.54
2023-01-31T06:58:52.880Z,95.21
2023-01-31T07:00:54.819Z,94.25
2023-01-31T07:02:56.887Z,94.55
2023-01-31T07:04:58.432Z,94.98
2023-01-31T07:06:59.885Z,95.23
2023-01-31T07:09:01.383Z,95.16
2023-01-31T07:11:03.855Z,94.19
2023-01-31T07:13:05.297Z,95.18
2023-01-31T07:15:07.438Z,95.08
2023-01-31T07:17:09.002Z,94.58
2023-01-31T07:19:10.508Z,94.90
2023-01-31T07:21:11.969Z,95.05
2023-01-31T07:23:13.436Z,94.84
2023-01-31T07:25:14.956Z,94.40
2023-01-31T07:27:16.662Z,94.94
2023-01-31T07:29:18.117Z,94.68
2023-01-31T07:31:20.876Z,94.67
2023-01-31T07:33:22.395Z,94.16
2023-01-31T07:35:24.133Z,94.92
2023-01-31T07:37:25.627Z,94.52
2023-01-31T07:39:27.852Z,94.15
2023-01-31T07:41:30.012Z,94.24
2023-01-31T07:43:32.634Z,94.88
2023-01-31T07:45:34.483Z,95.01
2023-01-31T07:47:36.187Z,94.17
2023-01-31T07:49:37.708Z,94.45
2023-01-31T07:51:39.271Z,95.06
2023-01-31T07:53:42.278Z,95.33
2023-01-31T07:55:47.649Z,95.41
2023-01-31T07:57:49.378Z,95.20
2023-01-31T07:59:50.958Z,95.27
2023-01-31T08:02:10.844Z,95.31
2023-01-31T08:04:21.471Z,95.63
2023-01-31T08:06:23.782Z,94.86
2023-01-31T08:08:25.230Z,95.07
2023-01-31T08:10:26.678Z,95.46
2023-01-31T08:12:29.298Z,95.94
2023-01-31T08:14:31.361Z,95.50
2023-01-31T08:16:33.157Z,94.96
2023-01-31T08:18:34.990Z,95.32
2023-01-31T08:20:39.411Z,94.81
2023-01-31T08:22:40.886Z,95.64
2023-01-31T08:24:42.407Z,95.74
2023-01-31T08:26:44.488Z,95.47
2023-01-31T08:28:47.222Z,95.64
2023-01-31T08:31:02.801Z,96.22
2023-01-31T08:33:11.216Z,96.24
2023-01-31T08:35:12.712Z,97.02
2023-01-31T08:37:15.773Z,96.99
2023-01-31T08:39:18.139Z,97.48
2023-01-31T08:41:22.496Z,97.19
2023-01-31T08:43:23.939Z,96.87
2023-01-31T08:45:25.431Z,97.24
2023-01-31T08:47:26.895Z,97.60
2023-01-31T08:49:29.079Z,97.31
2023-01-31T08:51:31.477Z,97.25
2023-01-31T08:53:34.011Z,97.24
2023-01-31T08:55:37.037Z,97.18
2023-01-31T08:57:45.868Z,97.19
2023-01-31T08:59:58.388Z,97.03
2023-01-31T09:01:59.865Z,96.73
2023-01-31T09:04:01.407Z,97.32
2023-01-31T09:06:06.002Z,97.26
2023-01-31T09:08:07.453Z,96.57
2023-01-31T09:10:09.583Z,97.06
2023-01-31T09:12:11.041Z,96.39
2023-01-31T09:14:12.700Z,96.60
2023-01-31T09:16:15.335Z,97.28
2023-01-31T09:18:16.794Z,96.59
2023-01-31T09:20:19.018Z,97.25
2023-01-31T09:22:20.683Z,96.61
2023-01-31T09:24:22.148Z,97.15
2023-01-31T09:26:23.847Z,97.64
2023-01-31T09:28:25.678Z,97.31
2023-01-31T09:30:27.177Z,96.88
2023-01-31T09:32:30.138Z,97.30
2023-01-31T09:34:32.116Z,97.59
2023-01-31T09:36:33.659Z,97.98
2023-01-31T09:38:35.896Z,98.23
2023-01-31T09:40:40.627Z,98.78
2023-01-31T09:42:45.489Z,98.40
2023-01-31T09:44:58.500Z,98.81
2023-01-31T09:47:24.649Z,99.13
2023-01-31T09:49:31.954Z,98.65
2023-01-31T09:51:39.339Z,98.87
2023-01-31T09:53:42.280Z,99.86
2023-01-31T09:56:02.712Z,99.96
2023-01-31T09:58:16.637Z,99.85
2023-01-31T10:00:21.082Z,99.73
2023-01-31T10:02:45.278Z,100.00
2023-01-31T10:05:05.558Z,100.00
2023-01-31T10:07:15.195Z,100.00
2023-01-31T10:09:42.738Z,100.00
2023-01-31T10:11:48.807Z,100.00
2023-01-31T10:13:57.722Z,100.00
2023-01-31T10:16:30.423Z,100.00
2023-01-31T10:18:42.260Z,100.00
2023-01-31T10:20:52.254Z,100.00
2023-01-31T10:23:04.554Z,100.00
2023-01-31T10:25:28.374Z,100.00
2023-01-31T10:27:46.087Z,100.00
2023-01-31T10:29:54.064Z,100.00
2023-01-31T10:31:57.432Z,100.00
2023-01-31T10:34:01.786Z,100.00
2023-01-31T10:36:11.463Z,100.00
2023-01-31T10:38:23.469Z,100.00
2023-01-31T10:40:46.080Z,100.00
2023-01-31T10:42:57.763Z,100.00
2023-01-31T10:44:59.278Z,100.00
2023-01-31T10:47:00.861Z,100.00
2023-01-31T10:49:03.468Z,100.00
2023-01-31T10:51:20.611Z,100.00
2023-01-31T10:53:52.198Z,100.00
2023-01-31T10:56:10.756Z,100.00
2023-01-31T10:58:19.497Z,100.00
2023-01-31T11:00:23.489Z,100.00
2023-01-31T11:02:29.891Z,100.00
2023-01-31T11:04:38.744Z,100.00
2023-01-31T11:06:40.091Z,100.00
2023-01-31T11:08:50.516Z,100.00
2023-01-31T11:10:54.231Z,100.00
2023-01-31T11:13:01.856Z,100.00
2023-01-31T11:15:06.812Z,100.00
2023-01-31T11:17:21.507Z,100.00
2023-01-31T11:19:27.453Z,100.00
2023-01-31T11:21:35.832Z,100.00
2023-01-31T11:23:38.016Z,100.00
2023-01-31T11:25:39.530Z,100.00
2023-01-31T11:27:43.649Z,100.00
2023-01-31T11:29:50.232Z,100.00
2023-01-31T11:31:53.181Z,100.00
2023-01-31T11:34:01.964Z,100.00
2023-01-31T11:36:14.061Z,100.00
2023-01-31T11:38:22.342Z,100.00
2023-01-31T11:40:38.450Z,100.00
2023-01-31T11:42:55.111Z,100.00
2023-01-31T11:45:18.490Z,100.00
2023-01-31T11:47:28.702Z,100.00
2023-01-31T11:49:35.379Z,100.00
2023-01-31T11:51:36.979Z,100.00
2023-01-31T11:53:43.960Z,100.00
2023-01-31T11:55:48.079Z,100.00
2023-01-31T11:57:56.647Z,100.00
2023-01-31T12:00:00.758Z,100.00
2023-01-31T12:02:02.446Z,100.00
2023-01-31T12:04:05.737Z,100.00
2023-01-31T12:06:09.988Z,100.00
2023-01-31T12:08:43.917Z,100.00
2023-01-31T12:10:48.757Z,100.00
2023-01-31T12:12:52.309Z,100.00
2023-01-31T12:14:59.332Z,100.00
2023-01-31T12:17:01.382Z,100.00
2023-01-31T12:19:02.843Z,100.00
2023-01-31T12:21:22.958Z,100.00
2023-01-31T12:23:35.131Z,100.00
2023-01-31T12:26:08.855Z,100.00
2023-01-31T12:28:13.064Z,100.00
2023-01-31T12:30:35.788Z,100.00
2023-01-31T12:33:11.190Z,100.00
2023-01-31T12:35:37.488Z,100.00
2023-01-31T12:37:49.932Z,100.00
2023-01-31T12:40:23.821Z,100.00
2023-01-31T12:42:37.162Z,100.00
2023-01-31T12:44:50.751Z,100.00
2023-01-31T12:47:09.957Z,100.00
2023-01-31T12:49:12.621Z,100.00
2023-01-31T12:51:32.732Z,100.00
2023-01-31T12:53:50.881Z,100.00
2023-01-31T12:56:41.542Z,100.00
2023-01-31T12:59:16.305Z,100.00
2023-01-31T13:01:32.498Z,100.00
2023-01-31T13:03:46.440Z,100.00
2023-01-31T13:06:10.174Z,100.00
2023-01-31T13:08:24.815Z,100.00
2023-01-31T13:10:43.984Z,100.00
2023-01-31T13:12:46.688Z,100.00
2023-01-31T13:15:29.329Z,100.00
2023-01-31T13:17:33.999Z,100.00
2023-01-31T13:19:44.393Z,100.00
2023-01-31T13:21:50.862Z,100.00
2023-01-31T13:23:55.869Z,100.00
2023-01-31T13:26:09.589Z,100.00
2023-01-31T13:28:28.494Z,100.00
2023-01-31T13:30:48.996Z,100.00
2023-01-31T13:32:55.273Z,100.00
2023-01-31T13:35:26.459Z,100.00
2023-01-31T13:37:30.432Z,100.00
2023-01-31T13:39:37.668Z,100.00
2023-01-31T13:41:40.005Z,100.00
2023-01-31T13:43:41.515Z,100.00
2023-01-31T13:45:48.352Z,100.00
2023-01-31T13:47:56.168Z,100.00
2023-01-31T13:50:17.548Z,100.00
2023-01-31T13:52:21.544Z,100.00
2023-01-31T13:54:57.639Z,100.00
2023-01-31T13:57:01.315Z,100.00
2023-01-31T13:59:06.995Z,100.00
2023-01-31T14:01:17.651Z,100.00
2023-01-31T14:03:20.747Z,100.00
2023-01-31T14:05:52.692Z,100.00
2023-01-31T14:08:33.086Z,100.00
2023-01-31T14:10:42.462Z,100.00
2023-01-31T14:12:43.945Z,100.00
2023-01-31T14:14:53.223Z,100.00
2023-01-31T14:16:54.674Z,100.00
2023-01-31T14:18:56.205Z,100.00
2023-01-31T14:20:57.655Z,100.00
2023-01-31T14:23:32.409Z,100.00
2023-01-31T14:25:42.073Z,100.00
2023-01-31T14:28:02.677Z,100.00
2023-01-31T14:30:04.695Z,100.00
2023-01-31T14:32:22.257Z,100.00
2023-01-31T14:34:26.611Z,100.00
2023-01-31T14:36:34.276Z,100.00
2023-01-31T14:38:45.252Z,100.00
2023-01-31T14:41:09.856Z,100.00
2023-01-31T14:43:26.616Z,100.00
2023-01-31T14:46:18.729Z,100.00
2023-01-31T14:48:24.645Z,100.00
2023-01-31T14:50:38.521Z,100.00
2023-01-31T14:52:52.914Z,100.00
2023-01-31T14:55:22.051Z,100.00
2023-01-31T14:57:31.198Z,100.00
2023-01-31T14:59:36.373Z,100.00
2023-01-31T15:01:38.337Z,100.00
2023-01-31T15:03:52.491Z,100.00
2023-01-31T15:06:11.664Z,100.00
2023-01-31T15:08:13.071Z,100.00
2023-01-31T15:10:53.335Z,100.00
2023-01-31T15:13:01.499Z,99.72
2023-01-31T15:15:05.480Z,99.81
2023-01-31T15:17:31.572Z,99.19
2023-01-31T15:19:44.261Z,98.28
2023-01-31T15:21:50.479Z,97.79
2023-01-31T15:23:53.945Z,96.94
2023-01-31T15:25:58.916Z,96.38
2023-01-31T15:28:02.563Z,95.49
2023-01-31T15:30:19.311Z,94.93
2023-01-31T15:32:45.747Z,93.74
2023-01-31T15:34:55.851Z,93.29
2023-01-31T15:37:16.569Z,92.79
2023-01-31T15:39:32.533Z,91.96
2023-01-31T15:41:42.349Z,91.47
2023-01-31T15:43:44.918Z,91.45
2023-01-31T15:45:51.526Z,90.99
2023-01-31T15:48:00.153Z,89.40
2023-01-31T15:50:01.646Z,88.39
2023-01-31T15:52:04.315Z,88.38
2023-01-31T15:54:07.093Z,87.58
2023-01-31T15:56:22.104Z,87.68
2023-01-31T15:58:25.789Z,86.96
2023-01-31T16:00:30.262Z,87.21
2023-01-31T16:02:37.984Z,86.43
2023-01-31T16:04:40.443Z,85.87
2023-01-31T16:06:41.976Z,84.98
2023-01-31T16:08:43.420Z,85.07
2023-01-31T16:10:46.600Z,84.80
2023-01-31T16:12:50.865Z,84.88
2023-01-31T16:14:59.229Z,84.56
2023-01-31T16:17:01.287Z,83.72
2023-01-31T16:19:04.256Z,84.44
2023-01-31T16:21:24.215Z,83.25
2023-01-31T16:23:34.897Z,83.10
2023-01-31T16:25:37.063Z,83.45
2023-01-31T16:27:42.794Z,83.29
2023-01-31T16:29:56.925Z,83.24
2023-01-31T16:31:59.520Z,83.19
2023-01-31T16:34:20.799Z,83.23
2023-01-31T16:36:51.427Z,82.41
2023-01-31T16:39:00.764Z,82.83
2023-01-31T16:41:07.956Z,82.42
2023-01-31T16:43:17.774Z,82.17
2023-01-31T16:45:34.036Z,81.99
2023-01-31T16:47:51.212Z,81.87
2023-01-31T16:50:15.146Z,82.31
2023-01-31T16:52:29.626Z,82.53
2023-01-31T16:54:31.331Z,83.02
2023-01-31T16:56:32.771Z,82.84
2023-01-31T16:58:43.064Z,83.33
2023-01-31T17:00:44.645Z,82.74
2023-01-31T17:02:46.126Z,82.41
2023-01-31T17:04:50.182Z,82.58
2023-01-31T17:07:03.200Z,82.06
2023-01-31T17:09:07.161Z,82.25
2023-01-31T17:11:16.429Z,82.49
2023-01-31T17:13:25.297Z,82.34
2023-01-31T17:15:26.948Z,82.18
2023-01-31T17:17:34.641Z,82.19
2023-01-31T17:19:36.146Z,81.09
2023-01-31T17:21:41.061Z,80.07
2023-01-31T17:23:42.796Z,79.59
2023-01-31T17:25:45.220Z,79.78
2023-01-31T17:27:47.467Z,80.04
2023-01-31T17:29:50.014Z,78.68
2023-01-31T17:31:52.146Z,79.49
2023-01-31T17:33:53.804Z,79.60
2023-01-31T17:35:55.339Z,79.31
2023-01-31T17:37:57.623Z,79.72
2023-01-31T17:39:59.525Z,79.32
2023-01-31T17:42:01.280Z,78.72
2023-01-31T17:44:03.038Z,79.36
2023-01-31T17:46:04.624Z,78.26
2023-01-31T17:48:07.794Z,78.27
2023-01-31T17:50:17.033Z,79.22
2023-01-31T17:52:18.610Z,78.56
2023-01-31T17:54:20.110Z,79.13
2023-01-31T17:56:21.839Z,78.69
2023-01-31T17:58:24.602Z,78.39
2023-01-31T18:00:26.051Z,78.27
2023-01-31T18:02:27.619Z,78.36
2023-01-31T18:04:29.312Z,78.37
2023-01-31T18:06:30.935Z,77.90
2023-01-31T18:08:32.815Z,77.29
2023-01-31T18:10:34.480Z,78.78
2023-01-31T18:12:36.607Z,78.28
2023-01-31T18:14:38.108Z,78.17
2023-01-31T18:16:39.691Z,78.84
2023-01-31T18:18:43.752Z,78.96
2023-01-31T18:20:48.186Z,78.17
2023-01-31T18:22:49.646Z,78.17
2023-01-31T18:24:51.215Z,77.60
2023-01-31T18:26:53.027Z,77.48
2023-01-31T18:28:57.256Z,76.79
2023-01-31T18:31:08.043Z,77.22
2023-01-31T18:33:09.733Z,76.79
2023-01-31T18:35:11.257Z,76.40
2023-01-31T18:37:19.303Z,77.30
2023-01-31T18:39:21.406Z,76.74
2023-01-31T18:41:23.073Z,76.09
2023-01-31T18:43:25.349Z,77.24
2023-01-31T18:45:26.870Z,76.15
2023-01-31T18:47:28.330Z,75.65
2023-01-31T18:49:30.048Z,75.68
2023-01-31T18:51:31.585Z,75.58
2023-01-31T18:53:38.515Z,75.24
2023-01-31T18:55:40.002Z,75.36
2023-01-31T18:57:41.531Z,75.31
2023-01-31T18:59:43.071Z,77.42
2023-01-31T19:01:44.714Z,75.20
2023-01-31T19:03:50.014Z,75.00
2023-01-31T19:05:51.507Z,75.88
2023-01-31T19:07:53.008Z,75.80
2023-01-31T19:09:54.561Z,75.37
2023-01-31T19:11:56.049Z,75.39
2023-01-31T19:13:58.505Z,75.10
2023-01-31T19:16:05.544Z,75.80
2023-01-31T19:18:07.189Z,75.52
2023-01-31T19:20:09.765Z,75.88
2023-01-31T19:22:11.236Z,76.33
2023-01-31T19:24:14.220Z,76.06
2023-01-31T19:26:17.331Z,75.85
2023-01-31T19:28:22.821Z,76.41
2023-01-31T19:30:24.349Z,76.28
2023-01-31T19:32:25.871Z,76.74
2023-01-31T19:34:27.343Z,76.70
2023-01-31T19:36:35.275Z,76.53
2023-01-31T19:38:36.949Z,76.53
2023-01-31T19:40:38.459Z,77.20
2023-01-31T19:42:42.281Z,77.19
2023-01-31T19:44:43.856Z,77.08
2023-01-31T19:46:46.346Z,76.60
2023-01-31T19:48:48.060Z,77.12
2023-01-31T19:50:49.535Z,77.04
2023-01-31T19:52:51.071Z,77.06
2023-01-31T19:54:52.646Z,76.61
2023-01-31T19:56:54.136Z,76.51
2023-01-31T19:58:55.723Z,76.49
2023-01-31T20:01:11.771Z,76.47
2023-01-31T20:03:13.305Z,76.49
2023-01-31T20:05:14.999Z,76.11
2023-01-31T20:07:16.513Z,76.47
2023-01-31T20:09:20.162Z,75.70
2023-01-31T20:11:23.440Z,77.11
2023-01-31T20:13:25.196Z,77.33
2023-01-31T20:15:27.355Z,76.14
2023-01-31T20:17:28.872Z,76.29
2023-01-31T20:19:30.326Z,75.85
2023-01-31T20:21:31.893Z,77.00
2023-01-31T20:23:33.822Z,76.18
2023-01-31T20:25:35.341Z,77.76
2023-01-31T20:27:36.889Z,76.83
2023-01-31T20:29:38.393Z,76.54
2023-01-31T20:31:39.956Z,76.99
2023-01-31T20:33:41.653Z,76.94
2023-01-31T20:35:43.981Z,76.90
2023-01-31T20:37:45.442Z,76.75
2023-01-31T20:39:46.892Z,76.09
2023-01-31T20:41:48.379Z,76.23
2023-01-31T20:43:50.648Z,76.24
2023-01-31T20:45:52.387Z,76.81
2023-01-31T20:47:58.285Z,76.37
2023-01-31T20:49:59.813Z,76.96
2023-01-31T20:52:02.431Z,77.32
2023-01-31T20:54:05.978Z,77.85
2023-01-31T20:56:09.946Z,77.80
2023-01-31T20:58:11.433Z,77.97
2023-01-31T21:00:13.316Z,78.18
2023-01-31T21:02:14.840Z,78.26
2023-01-31T21:04:16.388Z,79.02
2023-01-31T21:06:17.899Z,78.58
2023-01-31T21:08:20.146Z,79.18
2023-01-31T21:10:21.861Z,78.71
2023-01-31T21:12:23.488Z,78.29
2023-01-31T21:14:25.076Z,78.07
2023-01-31T21:16:26.557Z,77.76
2023-01-31T21:18:30.663Z,78.65
2023-01-31T21:20:32.129Z,77.59
2023-01-31T21:22:34.348Z,77.99
2023-01-31T21:24:36.786Z,77.27
2023-01-31T21:26:38.263Z,77.71
2023-01-31T21:28:40.111Z,77.14
2023-01-31T21:30:42.227Z,77.29
2023-01-31T21:32:43.854Z,78.64
2023-01-31T21:34:45.387Z,77.81
2023-01-31T21:36:46.900Z,77.33
2023-01-31T21:38:48.666Z,76.71
2023-01-31T21:41:10.716Z,77.77
2023-01-31T21:43:12.171Z,77.32
2023-01-31T21:45:13.661Z,76.87
2023-01-31T21:47:15.658Z,76.85
2023-01-31T21:49:17.128Z,77.11
2023-01-31T21:51:20.213Z,76.97
2023-01-31T21:53:22.276Z,76.97
2023-01-31T21:55:23.788Z,77.19
2023-01-31T21:57:25.247Z,77.13
2023-01-31T21:59:26.791Z,76.73
2023-01-31T22:01:31.154Z,76.56
2023-01-31T22:03:33.840Z,77.46
2023-01-31T22:05:35.322Z,76.87
2023-01-31T22:07:36.822Z,77.35
2023-01-31T22:09:38.309Z,77.46
2023-01-31T22:11:40.350Z,78.43
2023-01-31T22:13:46.795Z,77.88
2023-01-31T22:15:48.287Z,77.71
2023-01-31T22:17:49.799Z,77.44
2023-01-31T22:19:51.257Z,77.47
2023-01-31T22:21:52.830Z,78.46
2023-01-31T22:23:56.798Z,78.83
2023-01-31T22:26:02.881Z,78.26
2023-01-31T22:28:04.380Z,78.41
2023-01-31T22:30:15.861Z,78.19
2023-01-31T22:32:18.067Z,78.43
2023-01-31T22:34:19.523Z,78.14
2023-01-31T22:36:21.731Z,78.63
2023-01-31T22:38:24.177Z,77.76
2023-01-31T22:40:25.671Z,78.30
2023-01-31T22:42:27.130Z,78.16
2023-01-31T22:44:28.610Z,78.69
2023-01-31T22:46:30.237Z,78.66
2023-01-31T22:48:32.290Z,78.41
2023-01-31T22:50:33.769Z,78.40
2023-01-31T22:52:35.211Z,79.43
2023-01-31T22:54:36.695Z,79.31
2023-01-31T22:56:38.225Z,79.22
2023-01-31T22:58:40.154Z,79.09
2023-01-31T23:00:41.888Z,79.37
2023-01-31T23:02:43.349Z,79.12
2023-01-31T23:04:44.880Z,79.15
2023-01-31T23:06:46.365Z,78.48
2023-01-31T23:08:47.953Z,78.46
2023-01-31T23:10:49.456Z,78.68
2023-01-31T23:12:51.016Z,78.63
2023-01-31T23:14:52.484Z,79.45
2023-01-31T23:17:12.245Z,79.22
2023-01-31T23:19:15.358Z,80.15
2023-01-31T23:21:18.678Z,79.72
2023-01-31T23:23:20.929Z,79.43
2023-01-31T23:25:25.627Z,79.26
2023-01-31T23:27:27.601Z,79.23
2023-01-31T23:29:29.145Z,79.34
2023-01-31T23:31:32.533Z,79.46
2023-01-31T23:33:34.099Z,79.52
2023-01-31T23:35:35.589Z,79.21
2023-01-31T23:37:37.150Z,79.35
2023-01-31T23:39:38.621Z,79.61
2023-01-31T23:41:40.148Z,80.08
2023-01-31T23:43:41.642Z,79.71
2023-01-31T23:45:43.122Z,80.16
2023-01-31T23:47:44.700Z,80.37
2023-01-31T23:49:46.337Z,80.59
2023-01-31T23:51:47.822Z,80.48
2023-01-31T23:53:49.323Z,80.80
2023-01-31T23:55:50.798Z,80.53
2023-01-31T23:57:52.369Z,80.44
2023-01-31T23:59:53.906Z,80.21
